Time;durP1;ratioP1;P1;durP2;ratioP2;P2;SDS_P1;SDS_P2;PMS_P1;PMS_P2;Temp;Humidity;BMP_temperature;BMP_pressure;BME280_temperature;BME280_humidity;BME280_pressure;Samples;Min_cycle;Max_cycle;Signal;HPM_P1;HPM_P2
2022/05/23 00:01:55;;;;;;;2.20;2.00;;;13.10;99.90;;;;;;5013010;28;20924;-73
2022/05/23 00:04:21;;;;;;;1.73;1.63;;;13.10;99.90;;;;;;5012446;28;20183;-74
2022/05/23 00:06:48;;;;;;;2.23;1.67;;;13.10;99.90;;;;;;5011087;28;20463;-74
2022/05/23 00:09:14;;;;;;;2.93;2.63;;;13.00;99.90;;;;;;5011338;28;20646;-73
2022/05/23 00:11:39;;;;;;;1.80;1.70;;;13.00;99.90;;;;;;5011034;28;20418;-73
2022/05/23 00:14:05;;;;;;;1.97;1.80;;;13.00;99.90;;;;;;5011054;28;20182;-73
2022/05/23 00:16:36;;;;;;;3.17;1.90;;;12.90;99.90;;;;;;5010959;28;20168;-73
2022/05/23 00:19:03;;;;;;;3.13;2.00;;;12.90;99.90;;;;;;5011108;28;20184;-73
2022/05/23 00:21:29;;;;;;;2.60;1.70;;;12.90;99.90;;;;;;5011124;28;20399;-74
2022/05/23 00:23:54;;;;;;;4.87;1.63;;;12.80;99.90;;;;;;5011792;28;20400;-74
2022/05/23 00:26:21;;;;;;;2.13;1.93;;;12.80;99.90;;;;;;5011514;28;20179;-73
2022/05/23 00:28:48;;;;;;;4.17;1.93;;;12.80;99.90;;;;;;5011364;28;20200;-73
2022/05/23 00:31:14;;;;;;;2.33;1.73;;;12.70;99.90;;;;;;5011859;28;20485;-74
2022/05/23 00:36:25;;;;;;;5.93;2.27;;;12.70;99.90;;;;;;5015166;28;20452;-74
2022/05/23 00:38:51;;;;;;;1.73;1.60;;;12.70;99.90;;;;;;5015161;28;20902;-74
2022/05/23 00:44:32;;;;;;;4.83;2.03;;;12.60;99.90;;;;;;5014662;28;20176;-74
2022/05/23 00:47:01;;;;;;;1.57;1.47;;;12.60;99.90;;;;;;5013594;28;21023;-74
2022/05/23 00:49:33;;;;;;;2.17;1.97;;;12.60;99.90;;;;;;5014428;28;20427;-74
2022/05/23 00:52:03;;;;;;;2.60;2.40;;;12.60;99.90;;;;;;5014364;28;20403;-74
2022/05/23 00:54:34;;;;;;;2.53;1.90;;;12.60;99.90;;;;;;5014214;28;20411;-74
2022/05/23 00:57:00;;;;;;;3.33;2.53;;;12.50;99.90;;;;;;5014643;28;20557;-74
2022/05/23 00:59:32;;;;;;;2.40;1.83;;;12.50;99.90;;;;;;5014429;28;20817;-74
2022/05/23 01:01:59;;;;;;;3.50;2.07;;;12.50;99.90;;;;;;5016842;28;20612;-74
2022/05/23 01:04:25;;;;;;;4.30;1.77;;;12.40;99.90;;;;;;5013676;28;20622;-74
2022/05/23 01:06:51;;;;;;;3.87;2.30;;;12.40;99.90;;;;;;5014224;28;20493;-74
2022/05/23 01:09:16;;;;;;;3.47;2.00;;;12.40;99.90;;;;;;5014288;28;21000;-74
2022/05/23 01:11:42;;;;;;;2.80;1.97;;;12.30;99.90;;;;;;5014281;28;20573;-74
2022/05/23 01:14:08;;;;;;;2.83;2.63;;;12.30;99.90;;;;;;5014513;28;20571;-73
2022/05/23 01:16:33;;;;;;;2.30;1.93;;;12.20;99.90;;;;;;5014061;28;20677;-73
2022/05/23 01:18:59;;;;;;;2.63;2.33;;;12.20;99.90;;;;;;5013870;28;20659;-74
2022/05/23 01:21:42;;;;;;;2.07;1.97;;;12.20;99.90;;;;;;5013911;28;20176;-74
2022/05/23 01:24:15;;;;;;;1.83;1.70;;;12.20;99.90;;;;;;5014154;28;20315;-73
2022/05/23 01:26:41;;;;;;;2.47;2.20;;;12.20;99.90;;;;;;5013606;28;20562;-73
2022/05/23 01:29:14;;;;;;;4.67;2.20;;;12.10;99.90;;;;;;5013775;28;20551;-74
2022/05/23 01:31:41;;;;;;;3.77;2.20;;;12.10;99.90;;;;;;5053026;22;20269;-67
2022/05/23 01:34:07;;;;;;;2.40;2.20;;;12.10;99.90;;;;;;5033390;28;20441;-67
2022/05/23 01:36:32;;;;;;;4.90;2.50;;;12.10;99.90;;;;;;5033223;28;20394;-66
2022/05/23 01:38:58;;;;;;;3.20;2.47;;;12.00;99.90;;;;;;5033511;28;20405;-66
2022/05/23 01:41:23;;;;;;;2.30;2.10;;;12.00;99.90;;;;;;5033076;28;20190;-66
2022/05/23 01:43:49;;;;;;;3.87;2.90;;;12.00;99.90;;;;;;5032205;28;20162;-66
2022/05/23 01:46:14;;;;;;;2.93;2.40;;;12.00;99.90;;;;;;5033114;28;20507;-66
2022/05/23 01:48:40;;;;;;;1.80;1.60;;;12.00;99.90;;;;;;5033110;28;20172;-66
2022/05/23 01:51:05;;;;;;;4.33;2.97;;;12.00;99.90;;;;;;5033147;28;20248;-66
2022/05/23 01:53:31;;;;;;;2.10;1.90;;;12.00;99.90;;;;;;5033066;28;20179;-66
2022/05/23 01:55:58;;;;;;;5.13;2.43;;;12.00;99.90;;;;;;5032869;28;20179;-66
2022/05/23 02:01:13;;;;;;;3.20;1.87;;;12.00;99.90;;;;;;5030391;28;20440;-66
2022/05/23 02:03:39;;;;;;;2.30;2.17;;;12.00;99.90;;;;;;5033299;28;20405;-66
2022/05/23 02:06:04;;;;;;;2.90;2.63;;;12.00;99.90;;;;;;5032817;28;20919;-66
2022/05/23 02:08:30;;;;;;;4.80;3.17;;;11.90;99.90;;;;;;5033495;28;20406;-66
2022/05/23 02:10:55;;;;;;;2.80;2.33;;;11.90;99.90;;;;;;5032724;28;20195;-66
2022/05/23 02:13:21;;;;;;;3.73;1.60;;;11.90;99.90;;;;;;5032873;28;20221;-67
2022/05/23 02:15:46;;;;;;;3.20;2.17;;;11.90;99.90;;;;;;5032657;28;20168;-67
2022/05/23 02:18:11;;;;;;;6.23;2.60;;;11.90;99.90;;;;;;5032690;28;20273;-67
2022/05/23 02:20:37;;;;;;;4.73;2.57;;;11.90;99.90;;;;;;5032679;28;20187;-66
2022/05/23 02:23:02;;;;;;;3.40;3.10;;;11.80;99.90;;;;;;5032575;28;20171;-66
2022/05/23 02:25:28;;;;;;;3.13;2.83;;;11.80;99.90;;;;;;5032401;28;20251;-67
2022/05/23 02:27:55;;;;;;;6.43;4.03;;;11.80;99.90;;;;;;5033074;28;20263;-67
2022/05/23 02:30:21;;;;;;;3.67;3.00;;;11.70;99.90;;;;;;5032442;28;20626;-66
2022/05/23 02:32:47;;;;;;;3.10;2.80;;;11.70;99.90;;;;;;5032335;28;20414;-66
2022/05/23 02:35:14;;;;;;;4.33;3.40;;;11.70;99.90;;;;;;5032169;28;20614;-66
2022/05/23 02:37:40;;;;;;;4.00;2.90;;;11.70;99.90;;;;;;5032259;28;20453;-67
2022/05/23 02:40:07;;;;;;;3.00;2.70;;;11.70;99.90;;;;;;5032165;28;20963;-67
2022/05/23 02:42:32;;;;;;;3.00;2.70;;;11.70;99.90;;;;;;5032435;28;20514;-67
2022/05/23 02:44:57;;;;;;;3.23;2.93;;;11.70;99.90;;;;;;5032119;28;20413;-67
2022/05/23 02:47:23;;;;;;;2.87;2.57;;;11.60;99.90;;;;;;5031893;28;20171;-67
2022/05/23 02:49:48;;;;;;;3.67;2.30;;;11.60;99.90;;;;;;5031907;28;20171;-66
2022/05/23 02:52:14;;;;;;;3.30;2.73;;;11.60;99.90;;;;;;5032122;28;20250;-66
2022/05/23 02:54:39;;;;;;;3.20;2.90;;;11.60;99.90;;;;;;5031690;28;20164;-66
2022/05/23 02:57:05;;;;;;;4.27;2.57;;;11.60;99.90;;;;;;5032128;28;20338;-67
2022/05/23 02:59:30;;;;;;;2.60;2.40;;;11.60;99.90;;;;;;5032103;28;20172;-67
2022/05/23 03:04:41;;;;;;;2.77;2.53;;;11.60;99.90;;;;;;5031816;28;20530;-67
2022/05/23 03:07:07;;;;;;;3.07;2.77;;;11.60;99.90;;;;;;5031805;28;20414;-68
2022/05/23 03:09:32;;;;;;;2.50;2.30;;;11.60;99.90;;;;;;5031926;28;20410;-67
2022/05/23 03:11:59;;;;;;;4.43;2.93;;;11.60;99.90;;;;;;5031982;28;20274;-66
2022/05/23 03:14:26;;;;;;;3.10;2.87;;;11.60;99.90;;;;;;5032059;28;20254;-66
2022/05/23 03:16:51;;;;;;;3.23;2.50;;;11.60;99.90;;;;;;5031551;28;20757;-67
2022/05/23 03:19:17;;;;;;;3.37;3.00;;;11.60;99.90;;;;;;5031800;28;20406;-68
2022/05/23 03:27:11;;;;;;;3.10;2.90;;;11.60;99.90;;;;;;5032055;28;20401;-67
2022/05/23 03:29:36;;;;;;;3.20;2.50;;;11.60;99.90;;;;;;5031455;28;20410;-67
2022/05/23 03:32:02;;;;;;;3.63;3.33;;;11.60;99.90;;;;;;5032203;28;20206;-67
2022/05/23 03:34:27;;;;;;;5.43;3.10;;;11.60;99.90;;;;;;5032145;28;20201;-67
2022/05/23 03:36:53;;;;;;;3.47;3.03;;;11.70;99.90;;;;;;5032135;28;20418;-67
2022/05/23 03:39:18;;;;;;;3.53;3.23;;;11.70;99.90;;;;;;5033151;28;20244;-67
2022/05/23 03:41:44;;;;;;;3.77;3.47;;;11.80;99.90;;;;;;5032992;28;20192;-67
2022/05/23 03:44:10;;;;;;;2.90;2.30;;;11.80;99.90;;;;;;5033391;28;20175;-67
2022/05/23 03:46:36;;;;;;;3.83;2.70;;;11.80;99.90;;;;;;5033030;28;20171;-68
2022/05/23 03:49:02;;;;;;;4.23;3.30;;;11.80;99.90;;;;;;5033466;28;20167;-67
2022/05/23 03:51:28;;;;;;;3.80;2.80;;;11.90;99.90;;;;;;5033031;28;20426;-67
2022/05/23 03:53:54;;;;;;;4.80;3.30;;;11.90;99.90;;;;;;5032233;28;20464;-67
2022/05/23 03:56:20;;;;;;;4.50;3.53;;;11.90;99.90;;;;;;5031447;28;20661;-67
2022/05/23 03:58:45;;;;;;;4.23;2.80;;;11.90;99.90;;;;;;5031374;28;20199;-67
2022/05/23 04:01:14;;;;;;;2.90;2.70;;;12.00;99.90;;;;;;5032032;28;20187;-67
2022/05/23 04:03:41;;;;;;;3.27;2.97;;;12.00;99.90;;;;;;5031238;28;20258;-67
2022/05/23 04:06:07;;;;;;;5.40;3.17;;;12.00;99.90;;;;;;5031011;28;20411;-67
2022/05/23 04:08:32;;;;;;;4.03;3.30;;;12.10;99.90;;;;;;5035216;28;20421;-67
2022/05/23 04:10:58;;;;;;;3.33;2.87;;;12.10;99.90;;;;;;5035024;28;20513;-66
2022/05/23 04:13:25;;;;;;;3.80;3.43;;;12.20;99.90;;;;;;5035388;28;20187;-66
2022/05/23 04:15:50;;;;;;;4.53;2.60;;;12.20;99.90;;;;;;5035123;28;20242;-66
2022/05/23 04:18:17;;;;;;;3.30;3.00;;;12.30;99.90;;;;;;5034912;28;20972;-66
2022/05/23 04:20:43;;;;;;;4.10;3.00;;;12.40;99.90;;;;;;5034897;28;20190;-66
2022/05/23 04:23:09;;;;;;;5.83;3.97;;;12.50;99.90;;;;;;5034853;28;20445;-66
2022/05/23 04:25:48;;;;;;;4.43;4.03;;;12.60;99.90;;;;;;5035069;28;20454;-66
2022/05/23 04:28:14;;;;;;;4.17;3.40;;;12.70;99.90;;;;;;5034960;28;20172;-67
2022/05/23 04:30:40;;;;;;;2.63;2.43;;;12.80;99.90;;;;;;5034744;28;20450;-66
2022/05/23 04:35:51;;;;;;;4.23;3.73;;;13.00;99.90;;;;;;5034603;28;20170;-66
2022/05/23 04:38:17;;;;;;;4.00;3.17;;;13.40;99.90;;;;;;5034525;28;20482;-66
2022/05/23 04:40:43;;;;;;;3.20;2.73;;;13.50;99.90;;;;;;5034894;28;20438;-66
2022/05/23 04:43:09;;;;;;;5.10;2.83;;;13.60;99.90;;;;;;5034716;28;20403;-66
2022/05/23 04:45:34;;;;;;;4.80;3.00;;;13.60;99.90;;;;;;5034378;28;20429;-66
2022/05/23 04:50:44;;;;;;;3.47;3.17;;;13.70;99.90;;;;;;5034635;28;20546;-66
2022/05/23 04:53:10;;;;;;;3.00;2.70;;;14.10;99.90;;;;;;5034563;28;20406;-66
2022/05/23 04:55:37;;;;;;;2.70;2.50;;;14.90;99.90;;;;;;5034422;28;20187;-66
2022/05/23 04:58:03;;;;;;;3.23;2.93;;;15.40;99.90;;;;;;5034403;28;20283;-67
2022/05/23 05:00:31;;;;;;;3.20;2.90;;;15.90;99.90;;;;;;5034447;28;20503;-67
2022/05/23 05:02:59;;;;;;;2.63;2.43;;;16.00;99.90;;;;;;5034141;28;20568;-66
2022/05/23 05:05:26;;;;;;;3.30;2.93;;;16.60;99.90;;;;;;5034030;28;20400;-66
2022/05/23 05:07:51;;;;;;;4.67;2.67;;;17.20;99.90;;;;;;5032984;28;20423;-66
2022/05/23 05:10:17;;;;;;;2.93;2.63;;;17.00;99.90;;;;;;5034128;28;20842;-66
2022/05/23 05:12:43;;;;;;;3.00;2.70;;;17.50;99.90;;;;;;5034231;28;20175;-66
2022/05/23 05:15:09;;;;;;;3.77;3.00;;;17.40;99.90;;;;;;5033807;28;20443;-67
2022/05/23 05:17:34;;;;;;;2.60;2.40;;;18.10;99.90;;;;;;5034268;28;20490;-67
2022/05/23 05:20:00;;;;;;;2.73;2.53;;;18.00;99.90;;;;;;5034676;28;20200;-66
2022/05/23 05:22:26;;;;;;;3.53;2.50;;;18.30;99.90;;;;;;5034651;28;20232;-66
2022/05/23 05:24:51;;;;;;;3.23;2.93;;;18.60;99.90;;;;;;5033671;28;20179;-66
2022/05/23 05:27:17;;;;;;;3.87;2.53;;;18.60;99.90;;;;;;5033949;28;20182;-66
2022/05/23 05:29:42;;;;;;;3.17;2.60;;;18.10;99.90;;;;;;5033708;28;20189;-66
2022/05/23 05:32:17;;;;;;;3.70;2.97;;;18.10;99.90;;;;;;5033798;28;20185;-66
2022/05/23 05:35:06;;;;;;;3.30;2.80;;;17.90;99.90;;;;;;5033705;28;20318;-67
2022/05/23 05:37:37;;;;;;;2.83;2.40;;;18.10;99.90;;;;;;5034001;28;20448;-66
2022/05/23 05:40:04;;;;;;;5.03;2.63;;;18.60;99.90;;;;;;5033674;28;20528;-67
2022/05/23 05:42:34;;;;;;;2.37;2.27;;;18.60;99.90;;;;;;5033426;28;20407;-67
2022/05/23 05:45:06;;;;;;;3.23;2.60;;;18.50;99.90;;;;;;5033328;28;20399;-67
2022/05/23 05:47:35;;;;;;;6.00;2.60;;;19.20;99.90;;;;;;5033864;28;20470;-67
2022/05/23 05:50:06;;;;;;;3.37;2.80;;;18.90;99.90;;;;;;5033667;28;20501;-68
2022/05/23 05:52:33;;;;;;;6.80;2.50;;;19.50;99.90;;;;;;5033717;28;20426;-69
2022/05/23 05:55:00;;;;;;;3.60;2.27;;;19.30;99.90;;;;;;5033617;28;20948;-68
2022/05/23 05:57:27;;;;;;;4.40;2.17;;;18.90;99.90;;;;;;5033412;28;20463;-68
2022/05/23 05:59:52;;;;;;;3.13;2.23;;;18.80;99.90;;;;;;5033316;28;20427;-68
2022/05/23 06:02:18;;;;;;;3.30;2.00;;;19.50;99.90;;;;;;5033309;28;20461;-68
2022/05/23 06:04:43;;;;;;;2.43;1.90;;;19.70;99.90;;;;;;5033166;28;20243;-67
2022/05/23 06:12:51;;;;;;;1.70;1.43;;;19.70;99.90;;;;;;5033526;28;20916;-67
2022/05/23 06:15:16;;;;;;;2.20;2.00;;;20.30;99.90;;;;;;5032827;28;20417;-67
2022/05/23 06:17:43;;;;;;;2.43;2.23;;;20.80;99.90;;;;;;5033060;28;20558;-67
2022/05/23 06:20:13;;;;;;;3.07;2.10;;;21.00;99.90;;;;;;5032799;28;20284;-67
2022/05/23 06:22:39;;;;;;;1.93;1.53;;;21.70;99.90;;;;;;5032742;28;20395;-66
2022/05/23 06:25:05;;;;;;;2.03;1.83;;;22.50;99.90;;;;;;5032335;28;20429;-67
2022/05/23 06:27:31;;;;;;;1.93;1.83;;;22.40;99.20;;;;;;5032819;28;20616;-66
2022/05/23 06:29:56;;;;;;;1.77;1.67;;;21.90;99.90;;;;;;5031828;28;20445;-67
2022/05/23 06:32:22;;;;;;;3.57;1.97;;;21.70;99.90;;;;;;5032746;28;20174;-67
2022/05/23 06:34:48;;;;;;;1.83;1.73;;;21.60;99.90;;;;;;5032697;28;20216;-66
2022/05/23 06:37:13;;;;;;;1.90;1.30;;;21.90;99.90;;;;;;5032579;28;20687;-66
2022/05/23 06:39:39;;;;;;;2.27;1.40;;;21.80;99.50;;;;;;5032412;28;20542;-67
2022/05/23 06:42:05;;;;;;;1.97;1.40;;;21.40;99.90;;;;;;5032505;28;20420;-67
2022/05/23 06:44:31;;;;;;;2.00;1.30;;;22.50;99.60;;;;;;5032290;28;20170;-67
2022/05/23 06:46:56;;;;;;;1.60;1.50;;;21.90;97.90;;;;;;5032349;28;20939;-66
2022/05/23 06:49:22;;;;;;;1.90;1.80;;;21.60;98.70;;;;;;5032282;28;20405;-67
2022/05/23 06:51:51;;;;;;;1.57;1.47;;;21.50;99.80;;;;;;5032108;28;20188;-66
2022/05/23 06:54:19;;;;;;;1.70;1.40;;;22.30;98.30;;;;;;5032278;28;20216;-67
2022/05/23 06:56:45;;;;;;;1.83;1.40;;;22.90;97.80;;;;;;5031988;28;20407;-66
2022/05/23 06:59:11;;;;;;;2.20;1.70;;;23.50;95.90;;;;;;5032043;28;20896;-67
2022/05/23 07:01:37;;;;;;;2.30;1.20;;;23.40;95.60;;;;;;5032025;28;20538;-66
2022/05/23 07:04:02;;;;;;;1.27;1.17;;;23.20;95.20;;;;;;5031952;28;20475;-66
2022/05/23 07:12:27;;;;;;;1.10;1.00;;;23.50;93.90;;;;;;4970704;28;20409;-68
2022/05/23 07:14:54;;;;;;;1.47;1.20;;;24.10;93.40;;;;;;4970503;28;20420;-68
2022/05/23 07:17:21;;;;;;;1.30;1.20;;;23.70;93.80;;;;;;5003705;28;20457;-67
2022/05/23 07:19:47;;;;;;;1.63;1.53;;;23.80;93.10;;;;;;5031762;28;20410;-66
2022/05/23 07:22:13;;;;;;;1.63;1.20;;;23.80;92.90;;;;;;5031581;28;20471;-66
2022/05/23 07:24:38;;;;;;;1.63;1.40;;;23.60;93.40;;;;;;5031453;28;20405;-68
2022/05/23 07:27:04;;;;;;;1.20;1.10;;;24.10;91.80;;;;;;5031736;28;20174;-68
2022/05/23 07:29:29;;;;;;;2.73;1.33;;;23.80;92.30;;;;;;5032112;28;20588;-67
2022/05/23 07:31:57;;;;;;;1.30;1.20;;;23.40;93.40;;;;;;5032103;28;20211;-68
2022/05/23 07:34:22;;;;;;;1.70;1.60;;;23.90;92.20;;;;;;5031722;28;20236;-67
2022/05/23 07:36:48;;;;;;;1.90;1.40;;;24.60;91.50;;;;;;5031467;28;20405;-68
2022/05/23 07:39:14;;;;;;;1.57;1.47;;;24.40;90.80;;;;;;5031647;28;20168;-69
2022/05/23 07:41:40;;;;;;;2.30;1.30;;;24.70;90.30;;;;;;5030614;28;20525;-68
2022/05/23 07:44:11;;;;;;;1.07;0.97;;;24.10;90.80;;;;;;5031952;28;20746;-68
2022/05/23 07:46:37;;;;;;;1.97;1.77;;;23.80;90.60;;;;;;5031275;28;20439;-67
2022/05/23 07:49:03;;;;;;;3.00;1.40;;;23.50;90.70;;;;;;5031264;28;20766;-67
2022/05/23 07:51:30;;;;;;;1.03;0.93;;;23.40;91.30;;;;;;5031447;28;20430;-69
2022/05/23 08:02:11;;;;;;;1.93;0.90;;;22.90;91.00;;;;;;5031378;28;20524;-67
2022/05/23 08:04:36;;;;;;;3.77;1.60;;;23.00;91.10;;;;;;5030845;28;20491;-67
2022/05/23 08:07:02;;;;;;;1.10;1.00;;;23.50;91.10;;;;;;5031214;28;20935;-67
2022/05/23 08:09:28;;;;;;;1.63;1.27;;;24.10;90.10;;;;;;5030930;28;20174;-68
2022/05/23 08:11:55;;;;;;;1.40;1.30;;;24.40;88.60;;;;;;5030798;28;20465;-67
2022/05/23 08:14:22;;;;;;;1.17;1.07;;;23.80;89.50;;;;;;5030921;28;20168;-67
2022/05/23 08:16:48;;;;;;;1.50;1.40;;;23.30;89.30;;;;;;5030894;28;20755;-68
2022/05/23 08:19:14;;;;;;;1.70;1.60;;;23.60;90.00;;;;;;5030831;28;20899;-67
2022/05/23 08:21:47;;;;;;;2.03;1.30;;;22.40;91.70;;;;;;5030806;28;20429;-67
2022/05/23 08:24:13;;;;;;;1.20;1.10;;;23.30;90.60;;;;;;5031189;28;20397;-68
2022/05/23 08:26:38;;;;;;;3.73;1.00;;;23.90;89.20;;;;;;5030766;28;20808;-67
2022/05/23 08:29:04;;;;;;;1.17;1.07;;;24.60;84.50;;;;;;5031582;28;20417;-67
2022/05/23 08:31:29;;;;;;;1.90;1.40;;;24.70;84.50;;;;;;5029615;28;20242;-69
2022/05/23 08:33:55;;;;;;;1.37;1.20;;;24.80;84.30;;;;;;5031048;28;20176;-68
2022/05/23 08:36:20;;;;;;;1.77;1.53;;;24.30;83.30;;;;;;5030719;28;20634;-68
2022/05/23 08:38:45;;;;;;;2.07;1.00;;;23.90;83.60;;;;;;5030816;28;20213;-68
2022/05/23 08:41:22;;;;;;;1.10;1.00;;;23.80;83.10;;;;;;5030804;28;20263;-69
2022/05/23 08:43:50;;;;;;;1.20;0.93;;;23.80;83.90;;;;;;5030880;28;20707;-68
2022/05/23 08:46:45;;;;;;;1.20;0.90;;;23.70;84.50;;;;;;5030653;28;20411;-68
2022/05/23 08:49:34;;;;;;;1.10;1.00;;;24.00;83.50;;;;;;5030886;28;20455;-68
2022/05/23 08:52:30;;;;;;;1.40;1.20;;;24.00;81.50;;;;;;5031027;28;20411;-68
2022/05/23 08:55:01;;;;;;;1.10;1.00;;;23.90;82.00;;;;;;5006494;28;20444;-68
2022/05/23 08:57:51;;;;;;;1.27;1.00;;;22.80;85.00;;;;;;5034655;28;20503;-69
2022/05/23 09:00:23;;;;;;;1.70;1.20;;;23.20;83.90;;;;;;5020229;28;20472;-68
2022/05/23 09:02:56;;;;;;;1.00;0.90;;;23.60;84.70;;;;;;5034786;28;20493;-69
2022/05/23 09:05:29;;;;;;;1.33;1.20;;;23.60;84.70;;;;;;5034385;28;20942;-68
2022/05/23 09:07:58;;;;;;;1.30;1.10;;;24.50;80.90;;;;;;5034877;28;20416;-68
2022/05/23 09:10:31;;;;;;;1.13;0.93;;;24.70;76.20;;;;;;5034831;28;20429;-68
2022/05/23 09:12:56;;;;;;;1.17;1.00;;;24.20;76.00;;;;;;5035272;28;20828;-68
2022/05/23 09:15:23;;;;;;;1.00;0.90;;;24.10;77.50;;;;;;5034215;28;20422;-68
2022/05/23 09:17:56;;;;;;;0.90;0.80;;;23.70;79.40;;;;;;5034357;28;20298;-68
2022/05/23 09:20:40;;;;;;;1.67;1.10;;;24.00;78.50;;;;;;5035183;28;20525;-68
2022/05/23 09:23:10;;;;;;;1.20;1.10;;;24.60;76.80;;;;;;5035821;28;20423;-68
2022/05/23 09:25:36;;;;;;;1.37;1.27;;;24.20;75.40;;;;;;5034696;28;20406;-68
2022/05/23 09:28:33;;;;;;;1.10;0.97;;;23.40;79.00;;;;;;5034935;28;20413;-68
2022/05/23 09:31:27;;;;;;;1.43;0.83;;;23.10;76.30;;;;;;5033794;28;20448;-69
2022/05/23 09:33:56;;;;;;;1.90;1.10;;;23.50;77.10;;;;;;5033874;28;20435;-68
2022/05/23 09:36:29;;;;;;;1.93;1.40;;;23.30;77.70;;;;;;5033327;28;20498;-68
2022/05/23 09:39:02;;;;;;;1.10;1.00;;;23.10;79.10;;;;;;5034057;28;20461;-67
2022/05/23 09:49:53;;;;;;;1.73;1.00;;;23.70;72.00;;;;;;5033712;28;20563;-67
2022/05/23 09:52:36;;;;;;;1.43;1.03;;;23.40;73.80;;;;;;5033589;28;20496;-68
2022/05/23 09:55:05;;;;;;;1.23;1.00;;;23.20;74.20;;;;;;5032941;28;20182;-67
2022/05/23 09:57:40;;;;;;;1.20;1.00;;;23.40;74.20;;;;;;5033209;28;20980;-67
2022/05/23 10:00:27;;;;;;;1.20;1.10;;;23.50;73.80;;;;;;5033220;28;21148;-67
2022/05/23 10:02:59;;;;;;;1.37;0.70;;;23.00;72.10;;;;;;5032986;28;20414;-68
2022/05/23 10:05:27;;;;;;;1.20;1.00;;;22.80;74.90;;;;;;5031751;28;20777;-68
2022/05/23 10:07:58;;;;;;;1.40;1.30;;;22.80;76.00;;;;;;5032971;28;20988;-68
2022/05/23 10:10:29;;;;;;;1.80;1.30;;;22.60;75.10;;;;;;5032858;28;20519;-68
2022/05/23 10:13:20;;;;;;;1.00;1.00;;;22.30;75.30;;;;;;5032791;28;20418;-68
2022/05/23 10:16:11;;;;;;;0.93;0.90;;;22.80;73.90;;;;;;5032290;28;20410;-67
2022/05/23 10:18:45;;;;;;;1.40;1.00;;;22.70;76.00;;;;;;5022019;28;20461;-69
2022/05/23 10:21:33;;;;;;;1.23;1.13;;;22.90;74.80;;;;;;5032528;28;20485;-69
2022/05/23 10:24:02;;;;;;;1.73;0.90;;;22.40;76.10;;;;;;5032637;28;20434;-68
2022/05/23 10:26:30;;;;;;;1.17;1.07;;;22.40;76.60;;;;;;5032278;28;20463;-68
2022/05/23 10:29:03;;;;;;;1.27;1.17;;;22.20;76.50;;;;;;5032565;28;20418;-68
2022/05/23 10:31:38;;;;;;;2.13;1.00;;;22.60;76.60;;;;;;5032148;28;20466;-67
2022/05/23 10:34:30;;;;;;;1.80;1.00;;;22.30;76.50;;;;;;5032446;28;20414;-67
2022/05/23 10:36:57;;;;;;;1.33;0.93;;;22.10;77.60;;;;;;5032799;28;20404;-68
2022/05/23 10:42:39;;;;;;;1.50;1.40;;;22.00;77.60;;;;;;5032504;28;20459;-68
2022/05/23 10:45:09;;;;;;;2.50;1.97;;;22.00;78.50;;;;;;5031578;28;20424;-67
2022/05/23 10:48:01;;;;;;;1.30;1.20;;;22.00;78.60;;;;;;5032359;28;20464;-67
2022/05/23 10:51:04;;;;;;;1.67;1.17;;;22.30;77.00;;;;;;5032208;28;20427;-67
2022/05/23 10:53:30;;;;;;;1.57;1.10;;;22.60;77.00;;;;;;5015932;28;20513;-68
2022/05/23 10:56:08;;;;;;;1.40;1.30;;;22.60;77.70;;;;;;5032553;28;20493;-69
2022/05/23 10:58:42;;;;;;;2.00;1.30;;;22.70;78.00;;;;;;5032194;28;20205;-68
2022/05/23 11:01:33;;;;;;;2.40;1.40;;;22.20;78.30;;;;;;5031757;28;20868;-67
2022/05/23 11:04:33;;;;;;;1.10;1.00;;;22.80;75.90;;;;;;5031849;28;20460;-67
2022/05/23 11:06:59;;;;;;;1.20;1.10;;;23.20;76.50;;;;;;5032031;28;20399;-67
2022/05/23 11:09:42;;;;;;;1.50;1.17;;;22.90;76.50;;;;;;5031915;28;20429;-67
2022/05/23 11:12:19;;;;;;;2.90;1.43;;;22.80;74.20;;;;;;5031846;28;20264;-68
2022/05/23 11:15:05;;;;;;;1.13;1.03;;;23.00;74.20;;;;;;5031864;28;20422;-67
2022/05/23 11:18:09;;;;;;;0.90;0.90;;;22.60;75.50;;;;;;5031775;28;20445;-68
2022/05/23 11:20:39;;;;;;;3.03;1.20;;;22.30;75.20;;;;;;5031218;28;20437;-67
2022/05/23 11:23:17;;;;;;;4.53;1.00;;;22.10;76.80;;;;;;5031963;28;20964;-67
2022/05/23 11:25:46;;;;;;;1.93;1.10;;;22.30;74.90;;;;;;5031455;28;20427;-67
2022/05/23 11:34:26;;;;;;;1.20;1.07;;;22.50;75.60;;;;;;5032144;28;20770;-67
2022/05/23 11:37:09;;;;;;;1.77;1.43;;;22.50;74.80;;;;;;5031939;28;20425;-67
2022/05/23 11:39:49;;;;;;;2.20;1.10;;;22.10;75.00;;;;;;5032187;28;20792;-68
2022/05/23 11:42:50;;;;;;;3.20;1.17;;;22.20;77.00;;;;;;5031525;28;20497;-68
2022/05/23 11:48:40;;;;;;;2.60;1.63;;;22.80;75.50;;;;;;5031238;28;20407;-68
2022/05/23 11:51:26;;;;;;;2.17;1.07;;;22.30;75.30;;;;;;5030886;28;20424;-68
2022/05/23 11:54:00;;;;;;;1.13;1.00;;;22.40;77.20;;;;;;5030943;28;20789;-69
2022/05/23 11:56:44;;;;;;;2.00;0.93;;;22.80;76.20;;;;;;5030809;28;20493;-68
2022/05/23 11:59:32;;;;;;;1.30;1.20;;;22.40;76.50;;;;;;5030988;28;20454;-67
2022/05/23 12:02:06;;;;;;;2.03;1.07;;;22.10;77.50;;;;;;5016891;28;20445;-68
2022/05/23 12:04:32;;;;;;;2.10;1.90;;;22.20;76.60;;;;;;5030867;28;20488;-67
2022/05/23 12:06:58;;;;;;;1.67;1.57;;;22.40;77.90;;;;;;5031091;28;20407;-67
2022/05/23 12:09:33;;;;;;;2.30;1.10;;;22.30;77.20;;;;;;5031091;28;20475;-68
2022/05/23 12:12:24;;;;;;;1.20;1.10;;;22.50;77.10;;;;;;5030733;28;20177;-68
2022/05/23 12:14:54;;;;;;;1.70;1.40;;;22.70;78.50;;;;;;5030267;28;20446;-67
2022/05/23 12:17:30;;;;;;;1.23;1.10;;;23.00;78.10;;;;;;5029117;28;20496;-68
2022/05/23 12:19:58;;;;;;;1.73;1.43;;;22.90;76.20;;;;;;5030555;28;20430;-68
2022/05/23 12:22:36;;;;;;;1.47;1.33;;;22.80;76.90;;;;;;5030744;28;20406;-68
2022/05/23 12:25:07;;;;;;;2.27;1.33;;;22.40;77.90;;;;;;5030313;28;20899;-67
2022/05/23 12:27:35;;;;;;;1.30;1.20;;;22.40;77.40;;;;;;5031227;28;20436;-67
2022/05/23 12:30:23;;;;;;;1.00;0.90;;;22.50;77.20;;;;;;5034242;28;20460;-66
2022/05/23 12:32:55;;;;;;;1.80;1.00;;;22.80;76.10;;;;;;5034592;28;20747;-67
2022/05/23 12:35:30;;;;;;;1.30;1.20;;;22.90;76.60;;;;;;5034034;28;20407;-67
2022/05/23 12:38:24;;;;;;;1.70;1.10;;;22.60;75.70;;;;;;5034083;28;20446;-67
2022/05/23 12:41:01;;;;;;;1.00;0.90;;;23.00;76.60;;;;;;5034016;28;20423;-67
2022/05/23 12:43:49;;;;;;;1.30;1.13;;;23.20;76.50;;;;;;5034057;28;20397;-68
2022/05/23 12:46:23;;;;;;;1.80;1.27;;;23.40;76.10;;;;;;5033830;28;20403;-67
2022/05/23 12:49:13;;;;;;;1.03;0.90;;;23.10;74.80;;;;;;5033947;28;20478;-68
2022/05/23 12:52:03;;;;;;;1.47;1.10;;;23.20;75.60;;;;;;5033838;28;20875;-66
2022/05/23 12:54:43;;;;;;;2.00;1.10;;;23.10;75.90;;;;;;5034109;28;20472;-67
2022/05/23 12:57:31;;;;;;;1.60;1.40;;;23.30;76.20;;;;;;5033890;28;20410;-68
2022/05/23 13:00:03;;;;;;;2.03;1.30;;;23.20;76.80;;;;;;5034216;28;20430;-68
2022/05/23 13:02:37;;;;;;;1.00;1.00;;;23.20;75.30;;;;;;5033847;28;20403;-68
2022/05/23 13:05:08;;;;;;;1.00;1.00;;;23.00;74.30;;;;;;5033670;28;20414;-67
2022/05/23 13:07:58;;;;;;;1.83;1.23;;;23.00;73.50;;;;;;5033977;28;20503;-67
2022/05/23 13:10:30;;;;;;;1.10;1.00;;;23.00;74.10;;;;;;5033689;28;20427;-67
2022/05/23 13:13:20;;;;;;;1.80;1.23;;;23.20;73.20;;;;;;5033942;28;20665;-68
2022/05/23 13:15:45;;;;;;;0.90;0.80;;;23.30;73.30;;;;;;5033938;28;20497;-68
2022/05/23 13:23:45;;;;;;;1.30;1.17;;;23.10;72.20;;;;;;5033545;28;20448;-67
2022/05/23 13:26:12;;;;;;;1.57;0.90;;;22.80;72.60;;;;;;5033362;28;20418;-68
2022/05/23 13:28:43;;;;;;;1.10;1.00;;;23.00;71.40;;;;;;5033508;28;20764;-67
2022/05/23 13:31:29;;;;;;;3.20;1.20;;;22.90;71.50;;;;;;5056893;22;20490;-75
2022/05/23 13:33:57;;;;;;;1.50;1.13;;;23.00;72.50;;;;;;5014287;28;20468;-74
2022/05/23 13:36:25;;;;;;;1.20;1.10;;;22.90;71.20;;;;;;5014417;28;20400;-75
2022/05/23 13:39:17;;;;;;;1.30;1.20;;;22.80;72.70;;;;;;5013672;28;20455;-75
2022/05/23 13:41:43;;;;;;;1.30;1.20;;;22.80;73.30;;;;;;5014386;28;20524;-75
2022/05/23 13:44:24;;;;;;;2.03;1.00;;;23.00;73.00;;;;;;5015127;28;20958;-73
2022/05/23 13:46:59;;;;;;;1.77;1.00;;;22.70;73.80;;;;;;5017084;28;20913;-73
2022/05/23 13:49:30;;;;;;;2.10;0.97;;;22.70;74.10;;;;;;5014744;28;20852;-72
2022/05/23 13:52:00;;;;;;;1.20;1.10;;;22.80;73.50;;;;;;5014721;28;20434;-72
2022/05/23 13:54:35;;;;;;;1.20;1.10;;;22.90;72.60;;;;;;5017246;28;20487;-72
2022/05/23 13:57:31;;;;;;;1.33;1.10;;;23.00;73.00;;;;;;5017559;28;20410;-72
2022/05/23 14:00:09;;;;;;;1.57;1.00;;;23.10;73.10;;;;;;5008219;28;20430;-72
2022/05/23 14:02:45;;;;;;;1.30;1.10;;;23.10;73.20;;;;;;5012863;28;20449;-72
2022/05/23 14:05:11;;;;;;;1.50;1.13;;;23.50;73.40;;;;;;5013792;28;20446;-72
2022/05/23 14:07:40;;;;;;;1.47;1.13;;;23.70;74.10;;;;;;5014248;28;20910;-72
2022/05/23 14:10:10;;;;;;;1.30;1.10;;;23.60;73.20;;;;;;5014034;28;20165;-72
2022/05/23 14:12:36;;;;;;;1.43;1.33;;;23.40;72.70;;;;;;5013809;28;20779;-72
2022/05/23 14:15:04;;;;;;;2.80;1.23;;;23.20;73.40;;;;;;5013991;28;20450;-72